createdAt,value
2023-02-08T00:03:18.277Z,126.78932
2023-02-08T00:08:19.738Z,126.24852
2023-02-08T00:13:21.510Z,127.33333
2023-02-08T00:18:23.044Z,126.24852
2023-02-08T00:23:24.543Z,126.78932
2023-02-08T00:28:26.383Z,126.24852
2023-02-08T00:33:27.830Z,127.8806
2023-02-08T00:38:29.293Z,125.17647
2023-02-08T00:43:30.962Z,125.17647
2023-02-08T00:48:32.550Z,123.59184
2023-02-08T00:53:34.051Z,121.01149
2023-02-08T00:58:35.569Z,122.03468
2023-02-08T01:03:37.064Z,121.01149
2023-02-08T01:08:38.805Z,121.52161
2023-02-08T01:13:40.630Z,122.55072
2023-02-08T01:18:42.160Z,118.50425
2023-02-08T01:23:43.644Z,118.0113
2023-02-08T01:28:45.196Z,117.52113
2023-02-08T01:33:46.653Z,117.03371
2023-02-08T01:38:48.096Z,115.11111
2023-02-08T01:43:49.791Z,111.84741
2023-02-08T01:48:51.310Z,112.76712
2023-02-08T01:53:52.798Z,110.93767
2023-02-08T01:58:54.321Z,107.82979
2023-02-08T02:03:55.798Z,110.03774
2023-02-08T02:08:57.301Z,115.11111
2023-02-08T02:13:59.002Z,119.49858
2023-02-08T02:19:00.573Z,120.5043
2023-02-08T02:24:02.050Z,123.06977
2023-02-08T02:29:03.735Z,121.52161
2023-02-08T02:34:05.300Z,123.06977
2023-02-08T02:39:06.792Z,119
2023-02-08T02:44:08.549Z,119
2023-02-08T02:49:10.002Z,117.52113
2023-02-08T02:54:11.468Z,114.63712
2023-02-08T02:59:12.966Z,113.69697
2023-02-08T03:04:14.508Z,114.63712
2023-02-08T03:09:15.987Z,112.76712
2023-02-08T03:14:18.192Z,114.16575
2023-02-08T03:19:19.670Z,114.16575
2023-02-08T03:24:21.366Z,112.76712
2023-02-08T03:29:23.288Z,112.76712
2023-02-08T03:34:24.792Z,114.16575
2023-02-08T03:39:26.377Z,114.16575
2023-02-08T03:44:28.248Z,113.23077
2023-02-08T03:49:29.692Z,111.3913
2023-02-08T03:54:31.163Z,111.3913
2023-02-08T03:59:32.717Z,111.84741
2023-02-08T04:04:34.275Z,113.69697
2023-02-08T04:09:38.454Z,114.63712
2023-02-08T04:14:40.775Z,112.30601
2023-02-08T04:19:42.291Z,111.3913
2023-02-08T04:24:43.810Z,110.48649
2023-02-08T04:29:45.508Z,111.84741
2023-02-08T04:34:47.140Z,114.16575
2023-02-08T04:39:48.660Z,111.3913
2023-02-08T04:44:50.436Z,110.03774
2023-02-08T04:49:51.908Z,109.14745
2023-02-08T04:54:53.382Z,108.70588
2023-02-08T04:59:55.090Z,106.96296
2023-02-08T05:04:56.748Z,110.03774
2023-02-08T05:09:58.317Z,112.30601
2023-02-08T05:15:00.084Z,110.03774
2023-02-08T05:20:01.589Z,113.69697
2023-02-08T05:25:03.127Z,109.14745
2023-02-08T05:30:04.979Z,108.70588
2023-02-08T05:35:06.483Z,109.14745
2023-02-08T05:40:08.003Z,107.39523
2023-02-08T05:45:10.374Z,110.93767
2023-02-08T05:50:12.129Z,107.82979
2023-02-08T05:55:13.677Z,112.30601
2023-02-08T06:00:15.403Z,111.3913
2023-02-08T06:05:17.208Z,115.11111
2023-02-08T06:10:18.724Z,112.30601
2023-02-08T06:15:20.632Z,114.63712
2023-02-08T06:20:22.196Z,114.16575
2023-02-08T06:25:23.625Z,112.76712
2023-02-08T06:30:25.093Z,114.63712
2023-02-08T06:35:26.702Z,120.5043
2023-02-08T06:40:28.320Z,126.24852
2023-02-08T06:45:30.760Z,124.11696
2023-02-08T06:50:32.398Z,119.49858
2023-02-08T06:55:33.975Z,121.52161
2023-02-08T07:00:35.490Z,126.24852
2023-02-08T07:05:37.201Z,123.59184
2023-02-08T07:10:38.913Z,120
2023-02-08T07:15:40.882Z,122.03468
2023-02-08T07:20:42.503Z,124.64516
2023-02-08T07:25:43.983Z,121.01149
2023-02-08T07:30:45.720Z,109.14745
2023-02-08T07:35:47.284Z,105.25654
2023-02-08T07:40:48.901Z,106.53298
2023-02-08T07:45:50.717Z,104.41667
2023-02-08T07:50:52.286Z,105.25654
2023-02-08T07:55:53.762Z,106.10526
2023-02-08T08:00:55.324Z,106.53298
2023-02-08T08:05:56.803Z,109.5914
2023-02-08T08:10:58.234Z,108.70588
2023-02-08T08:16:00.414Z,107.82979
2023-02-08T08:21:01.908Z,108.70588
2023-02-08T08:26:03.452Z,105.67979
2023-02-08T08:31:05.080Z,103.58549
2023-02-08T08:36:06.738Z,102.35476
2023-02-08T08:41:08.222Z,101.94872
2023-02-08T08:46:10.190Z,102.35476
2023-02-08T08:51:12.072Z,103.58549
2023-02-08T08:56:13.644Z,102.76289
2023-02-08T09:01:15.577Z,102.35476
2023-02-08T09:06:17.132Z,101.54476
2023-02-08T09:11:18.851Z,103.58549
2023-02-08T09:16:20.784Z,106.10526
2023-02-08T09:21:22.282Z,106.53298
2023-02-08T09:26:23.921Z,112.30601
2023-02-08T09:31:25.647Z,110.93767
2023-02-08T09:36:27.195Z,107.39523
2023-02-08T09:41:28.665Z,111.3913
2023-02-08T09:46:30.379Z,114.16575
2023-02-08T09:51:32.033Z,112.76712
2023-02-08T09:56:33.785Z,113.69697
2023-02-08T10:01:35.241Z,119
2023-02-08T10:06:36.756Z,116.54902
2023-02-08T10:11:38.309Z,123.06977
2023-02-08T10:16:40.085Z,120
2023-02-08T10:21:41.605Z,127.8806
2023-02-08T10:26:43.369Z,128.98498
2023-02-08T10:31:45.372Z,125.71091
2023-02-08T10:36:46.888Z,130.66667
2023-02-08T10:41:48.397Z,139.55556
2023-02-08T10:46:50.030Z,132.95706
2023-02-08T10:51:51.541Z,134.12346
2023-02-08T10:56:53.106Z,152.10811
2023-02-08T11:01:54.932Z,129.54217
2023-02-08T11:06:56.458Z,140.17834
2023-02-08T11:11:58.071Z,150.02007
2023-02-08T11:16:59.721Z,144
2023-02-08T11:22:01.196Z,144.65147
2023-02-08T11:27:02.726Z,158.63415
2023-02-08T11:32:04.304Z,155.68385
2023-02-08T11:37:05.978Z,157.14879
2023-02-08T11:42:07.564Z,170.47059
2023-02-08T11:47:09.306Z,168.81752
2023-02-08T11:52:10.778Z,172.99628
2023-02-08T11:57:12.305Z,167.18841
2023-02-08T12:02:14.073Z,165.58273
2023-02-08T12:07:15.518Z,182.75969
2023-02-08T12:12:17.244Z,192.3871
2023-02-08T12:17:18.937Z,184.625
2023-02-08T12:22:20.378Z,169.64103
2023-02-08T12:27:21.801Z,170.47059
2023-02-08T12:32:23.606Z,157.88889
2023-02-08T12:37:25.053Z,172.14815
2023-02-08T12:42:26.648Z,172.99628
2023-02-08T12:47:28.570Z,172.99628
2023-02-08T12:52:30.055Z,182.75969
2023-02-08T12:57:31.960Z,175.57895
2023-02-08T13:02:33.803Z,180.01533
2023-02-08T13:07:35.341Z,185.56863
2023-02-08T13:12:36.786Z,181.83784
2023-02-08T13:17:38.500Z,178.22053
2023-02-08T13:22:40.039Z,173.85075
2023-02-08T13:27:41.481Z,168.81752
2023-02-08T13:32:44.303Z,164
2023-02-08T13:37:45.859Z,172.99628
2023-02-08T13:42:47.332Z,165.58273
2023-02-08T13:47:49.376Z,165.58273
2023-02-08T13:52:50.883Z,162.43972
2023-02-08T13:57:52.337Z,171.30627
2023-02-08T14:02:54.028Z,167.18841
2023-02-08T14:07:55.601Z,164
2023-02-08T14:12:57.206Z,177.33333
2023-02-08T14:17:59.347Z,160.14035
2023-02-08T14:23:00.832Z,151.40741
2023-02-08T14:28:02.487Z,143.35275
2023-02-08T14:33:04.267Z,145.96721
2023-02-08T14:38:05.825Z,140.17834
2023-02-08T14:43:07.447Z,144.65147
2023-02-08T14:48:09.685Z,144
2023-02-08T14:53:11.152Z,139.55556
2023-02-08T14:58:12.632Z,143.35275
2023-02-08T15:03:14.158Z,135.90031
2023-02-08T15:08:15.730Z,137.71069
2023-02-08T15:13:17.195Z,132.3792
2023-02-08T15:18:19.266Z,138.93671
2023-02-08T15:23:20.758Z,148.65116
2023-02-08T15:28:22.427Z,162.43972
2023-02-08T15:33:24.130Z,164.78853
2023-02-08T15:38:25.778Z,160.90141
2023-02-08T15:43:27.240Z,166.38267
2023-02-08T15:48:29.493Z,157.14879
2023-02-08T15:53:31.049Z,148.65116
2023-02-08T15:58:32.509Z,144
2023-02-08T16:03:34.078Z,141.4359
2023-02-08T16:08:35.741Z,141.4359
2023-02-08T16:13:37.467Z,138.93671
2023-02-08T16:18:39.634Z,137.10345
2023-02-08T16:23:41.179Z,130.66667
2023-02-08T16:28:42.757Z,123.06977
2023-02-08T16:33:44.448Z,123.59184
2023-02-08T16:38:46.040Z,121.01149
2023-02-08T16:43:47.667Z,120
2023-02-08T16:48:49.804Z,108.26667
2023-02-08T16:53:51.604Z,104
2023-02-08T16:58:53.226Z,102.35476
2023-02-08T17:03:55.078Z,102.35476
2023-02-08T17:08:56.920Z,101.94872
2023-02-08T17:13:58.393Z,105.67979
2023-02-08T17:19:00.329Z,104.83551
2023-02-08T17:24:01.803Z,105.67979
2023-02-08T17:29:03.265Z,102.35476
2023-02-08T17:34:04.848Z,100.743
2023-02-08T17:39:06.313Z,108.26667
2023-02-08T17:44:07.994Z,104.83551
2023-02-08T17:49:09.743Z,115.58774
2023-02-08T17:54:11.175Z,127.8806
2023-02-08T17:59:12.729Z,124.64516
2023-02-08T18:04:14.358Z,117.03371
2023-02-08T18:09:15.805Z,119.49858
2023-02-08T18:14:17.257Z,117.03371
2023-02-08T18:19:19.025Z,121.52161
2023-02-08T18:24:20.709Z,128.98498
2023-02-08T18:29:22.394Z,134.12346
2023-02-08T18:34:23.954Z,135.30435
2023-02-08T18:39:25.444Z,134.12346
2023-02-08T18:44:27.149Z,134.71207
2023-02-08T18:49:28.881Z,123.59184
2023-02-08T18:54:30.521Z,105.25654
2023-02-08T18:59:32.015Z,102.76289
2023-02-08T19:04:33.512Z,100.743
2023-02-08T19:09:35.055Z,114.63712
2023-02-08T19:14:36.563Z,130.66667
2023-02-08T19:19:38.301Z,138.93671
2023-02-08T19:24:39.775Z,165.58273
2023-02-08T19:29:41.633Z,180.92308
2023-02-08T19:34:43.252Z,154.9589
2023-02-08T19:39:44.924Z,140.17834
2023-02-08T19:44:46.692Z,134.71207
2023-02-08T19:49:48.411Z,126.78932
2023-02-08T19:54:50.035Z,126.24852
2023-02-08T19:59:51.627Z,123.06977
2023-02-08T20:04:53.413Z,122.55072
2023-02-08T20:09:54.872Z,121.01149
2023-02-08T20:14:56.506Z,120.5043
2023-02-08T20:19:58.539Z,123.06977
2023-02-08T20:25:00.027Z,125.71091
2023-02-08T20:30:01.466Z,125.17647
2023-02-08T20:35:03.145Z,126.24852
2023-02-08T20:40:04.640Z,125.17647
2023-02-08T20:45:06.236Z,128.43114
2023-02-08T20:50:18.300Z,134.71207
2023-02-08T20:55:20.894Z,134.71207
2023-02-08T21:00:24.176Z,137.71069
2023-02-08T21:05:27.583Z,139.55556
2023-02-08T21:10:29.220Z,140.80511
2023-02-08T21:15:30.847Z,137.71069
2023-02-08T21:20:32.819Z,137.71069
2023-02-08T21:25:34.434Z,135.90031
2023-02-08T21:30:36.129Z,135.90031
2023-02-08T21:35:37.726Z,134.71207
2023-02-08T21:40:39.331Z,132.3792
2023-02-08T21:45:42.713Z,127.8806
2023-02-08T21:50:44.741Z,127.8806
2023-02-08T21:55:46.546Z,122.03468
2023-02-08T22:00:48.003Z,123.59184
2023-02-08T22:05:49.705Z,123.06977
2023-02-08T22:10:58.027Z,122.55072
2023-02-08T22:16:00.357Z,122.03468
2023-02-08T22:21:02.285Z,121.01149
2023-02-08T22:26:03.776Z,122.55072
2023-02-08T22:31:05.356Z,121.52161
2023-02-08T22:36:07.192Z,119.49858
2023-02-08T22:41:08.973Z,121.52161
2023-02-08T22:46:10.531Z,120
2023-02-08T22:51:12.329Z,120.5043
2023-02-08T22:56:13.830Z,120.5043
2023-02-08T23:01:15.355Z,119.49858
2023-02-08T23:06:17.134Z,117.52113
2023-02-08T23:11:18.868Z,118.50425
2023-02-08T23:16:20.373Z,121.01149
2023-02-08T23:21:22.177Z,120.5043
2023-02-08T23:26:23.664Z,120.5043
2023-02-08T23:31:25.478Z,118.50425
2023-02-08T23:36:27.369Z,119
2023-02-08T23:41:28.905Z,117.52113
2023-02-08T23:46:30.362Z,114.63712
2023-02-08T23:51:32.055Z,113.69697
2023-02-08T23:56:33.526Z,112.76712
